Hartland Point — ZIQS6 — position and weather

sailwx.info

Track history (hours):
 
Tides and Currents Weather Stations Pressure Air Temp Water Temp Dewpoint Dewpoint Depression Visibility Wind Speed Wind Dir Waves Ship Positions

Hartland Point

Last reported at 2016-May-27 21:32 UTC. Time now 2016-May-27 22:01 UTC.
Position N 53°36' E 006°05'.

Length 193 m; draft 5.6 m.

Type: Ship. MMSI: 235505000.

Date/timePositionNaut miles runAvg speedWind from/ knotsBaromVisibWave heightAir tempDewpointWater temp
2016-May-27 21:32N 53°36' E 006°05'0 0.0
2016-May-27 20:32N 53°36' E 006°05'0 0.0
2016-May-27 19:31N 53°36' E 006°05'0 0.0
2016-May-27 18:31N 53°36' E 006°05'0 0.0
2016-May-27 17:33N 53°36' E 006°05'10 9.7
2016-May-27 16:33N 53°37' E 006°21'1817.9
2016-May-27 15:33N 53°30' E 006°48'1414.3
2016-May-27 14:33N 53°20' E 007°06'3 2.9
2016-May-27 13:33N 53°20' E 007°10'0 0.0
2016-May-27 12:33N 53°20' E 007°10'0 0.0
2016-May-27 11:33N 53°20' E 007°10'0 0.0
2016-May-27 10:29N 53°20' E 007°10'0 0.0
2016-May-27 09:32N 53°20' E 007°10'0 0.0
2016-May-27 08:31N 53°20' E 007°10'0 0.0
2016-May-27 07:31N 53°20' E 007°10'0 0.0
2016-May-27 06:33N 53°20' E 007°10'0 0.0
2016-May-27 05:33N 53°20' E 007°10'0 0.0
2016-May-27 04:33N 53°20' E 007°10'0 0.0
2016-May-27 03:32N 53°20' E 007°10'0 0.2
2016-May-27 02:33N 53°20' E 007°10'8 8.2
2016-May-27 01:33N 53°23' E 006°58'1919.1
2016-May-27 00:33N 53°36' E 006°34'1514.7
2016-May-26 23:34N 53°45' E 006°14'1514.7
2016-May-26 22:33N 53°60' E 006°17'1515.3
2016-May-26 21:33N 54°15' E 006°21'1615.5
2016-May-26 20:32N 54°28' E 006°35'2114.8
2016-May-26 19:07N 54°49' E 006°35'915.4
2016-May-26 18:33N 54°58' E 006°35'1515.2
2016-May-26 17:33N 55°13' E 006°34'1514.9
2016-May-26 16:33N 55°28' E 006°40'1615.3
2016-May-26 15:32N 55°42' E 006°51'1515.3
2016-May-26 14:32N 55°56' E 007°03'13014.5
2016-May-26 05:33N 57°39' E 009°28'1413.9
2016-May-26 04:33N 57°46' E 009°51'1313.4
2016-May-26 03:33N 57°48' E 010°16'1514.6
2016-May-26 02:33N 57°49' E 010°43'1414.1
2016-May-26 01:33N 57°40' E 011°03'1414.1
2016-May-26 00:33N 57°31' E 011°23'1413.7
2016-May-25 23:33N 57°18' E 011°35'1413.6
2016-May-25 22:33N 57°05' E 011°42'1413.8
2016-May-25 21:33N 56°52' E 011°50'1313.4
2016-May-25 20:33N 56°39' E 011°57'1613.2
2016-May-25 19:22N 56°24' E 012°03'1012.0
2016-May-25 18:33N 56°16' E 012°11'1313.3
2016-May-25 17:33N 56°08' E 012°31'1313.4
2016-May-25 16:34N 55°57' E 012°44'1413.9
2016-May-25 15:33N 55°43' E 012°41'1413.9
2016-May-25 14:33N 55°29' E 012°42'1212.4
2016-May-25 13:33N 55°17' E 012°48'1515.2
2016-May-25 12:34N 55°15' E 013°14'1514.6
2016-May-25 11:34N 55°13' E 013°40'1515.1
2016-May-25 10:33N 55°12' E 014°06'1414.0
2016-May-25 09:33N 55°21' E 014°26'1414.1
2016-May-25 08:34N 55°29' E 014°46'1414.2
2016-May-25 07:33N 55°37' E 015°07'1514.1
2016-May-25 06:28N 55°44' E 015°31'1615.4
2016-May-25 05:26N 55°52' E 015°56'1315.5
2016-May-25 04:34N 55°59' E 016°17'87 1.8
2016-May-23 05:24N 56°03' E 018°52'1011.3
2016-May-23 04:33N 55°56' E 018°41'1111.3
2016-May-23 03:33N 55°48' E 018°27'1111.4
2016-May-23 02:34N 55°40' E 018°13'1111.4
2016-May-23 01:33N 55°31' E 017°60'1111.0
2016-May-23 00:33N 55°26' E 017°42'1110.8
2016-May-22 23:33N 55°22' E 017°25'1111.2
2016-May-22 22:32N 55°18' E 017°06'3511.2
2016-May-22 19:24N 55°01' E 016°12'1011.2
2016-May-22 18:29N 54°55' E 015°58'1011.1
2016-May-22 17:33N 54°49' E 015°44'1511.1
2016-May-22 16:14N 54°38' E 015°25'1810.9
2016-May-22 14:33N 54°26' E 015°03'2311.1
2016-May-22 12:31N 54°10' E 014°34'1111.3
2016-May-22 11:33N 54°03' E 014°21'9 9.1
2016-May-22 10:33N 53°54' E 014°16'9 8.8
2016-May-22 09:33N 53°47' E 014°23'1111.2
2016-May-22 08:33N 53°38' E 014°35'9 9.3
2016-May-22 07:33N 53°29' E 014°37'3 2.9
2016-May-22 06:32N 53°26' E 014°35'0 0.0
2016-May-22 05:32N 53°26' E 014°35'0 0.0
2016-May-22 04:31N 53°26' E 014°35'0 0.0
2016-May-22 03:31N 53°26' E 014°35'0 0.0
2016-May-22 02:28N 53°26' E 014°35'0 0.0
2016-May-22 01:33N 53°26' E 014°35'0 0.1
2016-May-22 00:30N 53°26' E 014°35'0 0.1
2016-May-21 23:32N 53°26' E 014°35'0 0.0
2016-May-21 22:32N 53°26' E 014°35'0 0.0
2016-May-21 21:31N 53°26' E 014°35'0 0.0
2016-May-21 20:31N 53°26' E 014°35'0 0.0
2016-May-21 19:31N 53°26' E 014°35'0 0.0
2016-May-21 18:30N 53°26' E 014°35'0 0.0
2016-May-21 17:33N 53°26' E 014°35'0 0.0
2016-May-21 16:32N 53°26' E 014°35'0 0.0
2016-May-21 15:32N 53°26' E 014°35'0 0.0
2016-May-21 14:31N 53°26' E 014°35'0 0.0
2016-May-21 13:31N 53°26' E 014°35'0 0.0
2016-May-21 12:34N 53°26' E 014°35'0 0.0
2016-May-21 11:33N 53°26' E 014°35'0 0.0
2016-May-21 10:33N 53°26' E 014°35'0 0.1
2016-May-21 09:32N 53°26' E 014°35'0 0.1
2016-May-21 08:32N 53°26' E 014°35'0 0.0
2016-May-21 07:33N 53°26' E 014°35'2 2.4
2016-May-21 06:33N 53°28' E 014°36'4 4.0
2016-May-21 05:33N 53°32' E 014°38'8 7.6
2016-May-21 04:33N 53°39' E 014°33'1111.4
2016-May-21 03:33N 53°48' E 014°21'7 7.4
2016-May-21 02:33N 53°55' E 014°17'8 8.3
2016-May-21 01:33N 54°03' E 014°14'1111.5
2016-May-21 00:33N 54°14' E 014°10'1211.2
2016-May-20 23:27N 54°26' E 014°03'1212.0
2016-May-20 22:27N 54°36' E 013°51'1111.9
2016-May-20 21:33N 54°44' E 013°39'1010.2
2016-May-20 20:33N 54°52' E 013°28'1312.5
2016-May-20 19:32N 55°01' E 013°13'1010.4
2016-May-20 18:33N 55°09' E 013°01'1010.4
2016-May-20 17:33N 55°15' E 012°47'9 8.7
2016-May-20 16:33N 55°22' E 012°39'10 9.7
2016-May-20 15:33N 55°32' E 012°42'9 9.1
2016-May-20 14:33N 55°41' E 012°41'9 9.2
2016-May-20 13:33N 55°50' E 012°41'10 9.5
2016-May-20 12:33N 55°60' E 012°38'9 8.8
2016-May-20 11:33N 56°07' E 012°30'10 9.6
2016-May-20 10:33N 56°13' E 012°16'10 9.8
2016-May-20 09:33N 56°19' E 012°03'1010.3
2016-May-20 08:33N 56°29' E 011°58'1010.1
2016-May-20 07:33N 56°39' E 011°54'10 9.7
2016-May-20 06:33N 56°49' E 011°50'10 9.7
2016-May-20 05:33N 56°58' E 011°44'1010.2
2016-May-20 04:33N 57°07' E 011°37'1010.1
2016-May-20 03:33N 57°17' E 011°31'10 9.9
2016-May-20 02:33N 57°26' E 011°25'10 9.9
2016-May-20 01:33N 57°33' E 011°13'10 9.8
2016-May-20 00:33N 57°40' E 010°59'1010.3
2016-May-19 23:33N 57°47' E 010°45'1212.0
2016-May-19 22:33N 57°49' E 010°23'1110.7
2016-May-19 21:33N 57°45' E 010°04'145 9.5
2016-May-19 06:15N 55°57' E 007°05'710.1
2016-May-19 05:33N 55°51' E 006°60'1010.2
2016-May-19 04:33N 55°42' E 006°52'1010.3
2016-May-19 03:32N 55°33' E 006°44'1010.2
2016-May-19 02:33N 55°23' E 006°37'1010.3
2016-May-19 01:33N 55°13' E 006°35'1110.7
2016-May-19 00:33N 55°02' E 006°35'1110.7
2016-May-18 23:33N 54°52' E 006°35'2210.6
2016-May-18 21:31N 54°30' E 006°34'1010.3
2016-May-18 20:32N 54°21' E 006°28'1010.2
2016-May-18 19:33N 54°11' E 006°22'10 9.8
2016-May-18 18:33N 54°02' E 006°22'1313.4
2016-May-18 17:34N 53°48' E 006°23'1211.5
2016-May-18 16:34N 53°37' E 006°27'1615.7
2016-May-18 15:34N 53°29' E 006°50'1312.8
2016-May-18 14:33N 53°19' E 007°04'4 3.6
2016-May-18 13:29N 53°20' E 007°10'0 0.0
2016-May-18 12:31N 53°20' E 007°10'0 0.0
2016-May-18 11:31N 53°20' E 007°10'0 0.0
2016-May-18 10:33N 53°20' E 007°10'0 0.0
2016-May-18 09:33N 53°20' E 007°10'0 0.2
2016-May-18 08:34N 53°20' E 007°10'8 8.4
2016-May-18 07:34N 53°24' E 006°57'1919.3
2016-May-18 06:33N 53°37' E 006°33'1615.5
2016-May-18 05:33N 53°39' E 006°08'1212.1
2016-May-18 04:33N 53°38' E 005°47'1212.2
2016-May-18 03:33N 53°34' E 005°28'1212.3
2016-May-18 02:33N 53°30' E 005°08'5112.1
2016-May-17 22:19N 52°50' E 004°14'1012.4
2016-May-17 21:33N 52°43' E 004°04'  
Track history (hours):
 
Tides and Currents Weather Stations Pressure Air Temp Water Temp Dewpoint Dewpoint Depression Visibility Wind Speed Wind Dir Waves Ship Positions

Hartland Point

Last reported at 2016-May-27 21:32 UTC. Time now 2016-May-27 22:01 UTC.
Position N 53°36' E 006°05'.

Length 193 m; draft 5.6 m.

Type: Ship. MMSI: 235505000.

Date/timePositionNaut miles runAvg speedWind from/ knotsBaromVisibWave heightAir tempDewpointWater temp
2016-May-27 21:32N 53°36' E 006°05'0 0.0
2016-May-27 20:32N 53°36' E 006°05'0 0.0
2016-May-27 19:31N 53°36' E 006°05'0 0.0
2016-May-27 18:31N 53°36' E 006°05'0 0.0
2016-May-27 17:33N 53°36' E 006°05'10 9.7
2016-May-27 16:33N 53°37' E 006°21'1817.9
2016-May-27 15:33N 53°30' E 006°48'1414.3
2016-May-27 14:33N 53°20' E 007°06'3 2.9
2016-May-27 13:33N 53°20' E 007°10'0 0.0
2016-May-27 12:33N 53°20' E 007°10'0 0.0
2016-May-27 11:33N 53°20' E 007°10'0 0.0
2016-May-27 10:29N 53°20' E 007°10'0 0.0
2016-May-27 09:32N 53°20' E 007°10'0 0.0
2016-May-27 08:31N 53°20' E 007°10'0 0.0
2016-May-27 07:31N 53°20' E 007°10'0 0.0
2016-May-27 06:33N 53°20' E 007°10'0 0.0
2016-May-27 05:33N 53°20' E 007°10'0 0.0
2016-May-27 04:33N 53°20' E 007°10'0 0.0
2016-May-27 03:32N 53°20' E 007°10'0 0.2
2016-May-27 02:33N 53°20' E 007°10'8 8.2
2016-May-27 01:33N 53°23' E 006°58'1919.1
2016-May-27 00:33N 53°36' E 006°34'1514.7
2016-May-26 23:34N 53°45' E 006°14'1514.7
2016-May-26 22:33N 53°60' E 006°17'1515.3
2016-May-26 21:33N 54°15' E 006°21'1615.5
2016-May-26 20:32N 54°28' E 006°35'2114.8
2016-May-26 19:07N 54°49' E 006°35'915.4
2016-May-26 18:33N 54°58' E 006°35'1515.2
2016-May-26 17:33N 55°13' E 006°34'1514.9
2016-May-26 16:33N 55°28' E 006°40'1615.3
2016-May-26 15:32N 55°42' E 006°51'1515.3
2016-May-26 14:32N 55°56' E 007°03'13014.5
2016-May-26 05:33N 57°39' E 009°28'1413.9
2016-May-26 04:33N 57°46' E 009°51'1313.4
2016-May-26 03:33N 57°48' E 010°16'1514.6
2016-May-26 02:33N 57°49' E 010°43'1414.1
2016-May-26 01:33N 57°40' E 011°03'1414.1
2016-May-26 00:33N 57°31' E 011°23'1413.7
2016-May-25 23:33N 57°18' E 011°35'1413.6
2016-May-25 22:33N 57°05' E 011°42'1413.8
2016-May-25 21:33N 56°52' E 011°50'1313.4
2016-May-25 20:33N 56°39' E 011°57'1613.2
2016-May-25 19:22N 56°24' E 012°03'1012.0
2016-May-25 18:33N 56°16' E 012°11'1313.3
2016-May-25 17:33N 56°08' E 012°31'1313.4
2016-May-25 16:34N 55°57' E 012°44'1413.9
2016-May-25 15:33N 55°43' E 012°41'1413.9
2016-May-25 14:33N 55°29' E 012°42'1212.4
2016-May-25 13:33N 55°17' E 012°48'1515.2
2016-May-25 12:34N 55°15' E 013°14'1514.6
2016-May-25 11:34N 55°13' E 013°40'1515.1
2016-May-25 10:33N 55°12' E 014°06'1414.0
2016-May-25 09:33N 55°21' E 014°26'1414.1
2016-May-25 08:34N 55°29' E 014°46'1414.2
2016-May-25 07:33N 55°37' E 015°07'1514.1
2016-May-25 06:28N 55°44' E 015°31'1615.4
2016-May-25 05:26N 55°52' E 015°56'1315.5
2016-May-25 04:34N 55°59' E 016°17'87 1.8
2016-May-23 05:24N 56°03' E 018°52'1011.3
2016-May-23 04:33N 55°56' E 018°41'1111.3
2016-May-23 03:33N 55°48' E 018°27'1111.4
2016-May-23 02:34N 55°40' E 018°13'1111.4
2016-May-23 01:33N 55°31' E 017°60'1111.0
2016-May-23 00:33N 55°26' E 017°42'1110.8
2016-May-22 23:33N 55°22' E 017°25'1111.2
2016-May-22 22:32N 55°18' E 017°06'3511.2
2016-May-22 19:24N 55°01' E 016°12'1011.2
2016-May-22 18:29N 54°55' E 015°58'1011.1
2016-May-22 17:33N 54°49' E 015°44'1511.1
2016-May-22 16:14N 54°38' E 015°25'1810.9
2016-May-22 14:33N 54°26' E 015°03'2311.1
2016-May-22 12:31N 54°10' E 014°34'1111.3
2016-May-22 11:33N 54°03' E 014°21'9 9.1
2016-May-22 10:33N 53°54' E 014°16'9 8.8
2016-May-22 09:33N 53°47' E 014°23'1111.2
2016-May-22 08:33N 53°38' E 014°35'9 9.3
2016-May-22 07:33N 53°29' E 014°37'3 2.9
2016-May-22 06:32N 53°26' E 014°35'0 0.0
2016-May-22 05:32N 53°26' E 014°35'0 0.0
2016-May-22 04:31N 53°26' E 014°35'0 0.0
2016-May-22 03:31N 53°26' E 014°35'0 0.0
2016-May-22 02:28N 53°26' E 014°35'0 0.0
2016-May-22 01:33N 53°26' E 014°35'0 0.1
2016-May-22 00:30N 53°26' E 014°35'0 0.1
2016-May-21 23:32N 53°26' E 014°35'0 0.0
2016-May-21 22:32N 53°26' E 014°35'0 0.0
2016-May-21 21:31N 53°26' E 014°35'0 0.0
2016-May-21 20:31N 53°26' E 014°35'0 0.0
2016-May-21 19:31N 53°26' E 014°35'0 0.0
2016-May-21 18:30N 53°26' E 014°35'0 0.0
2016-May-21 17:33N 53°26' E 014°35'0 0.0
2016-May-21 16:32N 53°26' E 014°35'0 0.0
2016-May-21 15:32N 53°26' E 014°35'0 0.0
2016-May-21 14:31N 53°26' E 014°35'0 0.0
2016-May-21 13:31N 53°26' E 014°35'0 0.0
2016-May-21 12:34N 53°26' E 014°35'0 0.0
2016-May-21 11:33N 53°26' E 014°35'0 0.0
2016-May-21 10:33N 53°26' E 014°35'0 0.1
2016-May-21 09:32N 53°26' E 014°35'0 0.1
2016-May-21 08:32N 53°26' E 014°35'0 0.0
2016-May-21 07:33N 53°26' E 014°35'2 2.4
2016-May-21 06:33N 53°28' E 014°36'4 4.0
2016-May-21 05:33N 53°32' E 014°38'8 7.6
2016-May-21 04:33N 53°39' E 014°33'1111.4
2016-May-21 03:33N 53°48' E 014°21'7 7.4
2016-May-21 02:33N 53°55' E 014°17'8 8.3
2016-May-21 01:33N 54°03' E 014°14'1111.5
2016-May-21 00:33N 54°14' E 014°10'1211.2
2016-May-20 23:27N 54°26' E 014°03'1212.0
2016-May-20 22:27N 54°36' E 013°51'1111.9
2016-May-20 21:33N 54°44' E 013°39'1010.2
2016-May-20 20:33N 54°52' E 013°28'1312.5
2016-May-20 19:32N 55°01' E 013°13'1010.4
2016-May-20 18:33N 55°09' E 013°01'1010.4
2016-May-20 17:33N 55°15' E 012°47'9 8.7
2016-May-20 16:33N 55°22' E 012°39'10 9.7
2016-May-20 15:33N 55°32' E 012°42'9 9.1
2016-May-20 14:33N 55°41' E 012°41'9 9.2
2016-May-20 13:33N 55°50' E 012°41'10 9.5
2016-May-20 12:33N 55°60' E 012°38'9 8.8
2016-May-20 11:33N 56°07' E 012°30'10 9.6
2016-May-20 10:33N 56°13' E 012°16'10 9.8
2016-May-20 09:33N 56°19' E 012°03'1010.3
2016-May-20 08:33N 56°29' E 011°58'1010.1
2016-May-20 07:33N 56°39' E 011°54'10 9.7
2016-May-20 06:33N 56°49' E 011°50'10 9.7
2016-May-20 05:33N 56°58' E 011°44'1010.2
2016-May-20 04:33N 57°07' E 011°37'1010.1
2016-May-20 03:33N 57°17' E 011°31'10 9.9
2016-May-20 02:33N 57°26' E 011°25'10 9.9
2016-May-20 01:33N 57°33' E 011°13'10 9.8
2016-May-20 00:33N 57°40' E 010°59'1010.3
2016-May-19 23:33N 57°47' E 010°45'1212.0
2016-May-19 22:33N 57°49' E 010°23'1110.7
2016-May-19 21:33N 57°45' E 010°04'145 9.5
2016-May-19 06:15N 55°57' E 007°05'710.1
2016-May-19 05:33N 55°51' E 006°60'1010.2
2016-May-19 04:33N 55°42' E 006°52'1010.3
2016-May-19 03:32N 55°33' E 006°44'1010.2
2016-May-19 02:33N 55°23' E 006°37'1010.3
2016-May-19 01:33N 55°13' E 006°35'1110.7
2016-May-19 00:33N 55°02' E 006°35'1110.7
2016-May-18 23:33N 54°52' E 006°35'2210.6
2016-May-18 21:31N 54°30' E 006°34'1010.3
2016-May-18 20:32N 54°21' E 006°28'1010.2
2016-May-18 19:33N 54°11' E 006°22'10 9.8
2016-May-18 18:33N 54°02' E 006°22'1313.4
2016-May-18 17:34N 53°48' E 006°23'1211.5
2016-May-18 16:34N 53°37' E 006°27'1615.7
2016-May-18 15:34N 53°29' E 006°50'1312.8
2016-May-18 14:33N 53°19' E 007°04'4 3.6
2016-May-18 13:29N 53°20' E 007°10'0 0.0
2016-May-18 12:31N 53°20' E 007°10'0 0.0
2016-May-18 11:31N 53°20' E 007°10'0 0.0
2016-May-18 10:33N 53°20' E 007°10'0 0.0
2016-May-18 09:33N 53°20' E 007°10'0 0.2
2016-May-18 08:34N 53°20' E 007°10'8 8.4
2016-May-18 07:34N 53°24' E 006°57'1919.3
2016-May-18 06:33N 53°37' E 006°33'1615.5
2016-May-18 05:33N 53°39' E 006°08'1212.1
2016-May-18 04:33N 53°38' E 005°47'1212.2
2016-May-18 03:33N 53°34' E 005°28'1212.3
2016-May-18 02:33N 53°30' E 005°08'5112.1
2016-May-17 22:19N 52°50' E 004°14'1012.4
2016-May-17 21:33N 52°43' E 004°04'  

Dump ship's entire track history